Aviation Digital Data Service (ADDS)

Output produced by METARs form (1915 UTC 23 April 2018)
found at http://www.aviationweather.gov/adds/metars/
 
KUNV 231853Z 14008G15KT 10SM SKC 19/01 A3033
KUNV 231753Z 18008G14KT 10SM SKC 19/00 A3035
KUNV 231653Z 12007KT 10SM SKC 18/02 A3037
KUNV 231553Z 18009G17KT 10SM CLR 17/00 A3039
KUNV 231453Z 23005KT 10SM SKC 15/00 A3040
KUNV 231353Z 00000KT 10SM SKC 12/M02 A3041
KUNV 231253Z 00000KT 10SM SKC 09/M02 A3042
KUNV 231153Z 00000KT 10SM SKC 07/M03 A3041
KUNV 231053Z 00000KT 10SM SKC 02/M04 A3039
KUNV 230953Z 04007KT 10SM SKC 05/M05 A3038
KUNV 230935Z AUTO 02005KT 10SM CLR 05/M05 A3038 RMK AO2 T00541051
KUNV 230915Z AUTO 02006KT 10SM CLR 06/M05 A3038 RMK AO2 T00551053
KUNV 230855Z AUTO 04004KT 10SM CLR 05/M05 A3038 RMK AO2 T00511049
KUNV 230835Z AUTO 02004KT 10SM CLR 04/M04 A3038 RMK AO2 T00431043
KUNV 230815Z AUTO 00000KT 10SM CLR 04/M05 A3038 RMK AO2 T00391046
KUNV 230755Z AUTO 00000KT 10SM CLR 05/M05 A3038 RMK AO2 T00501046
KUNV 230735Z AUTO 00000KT 10SM CLR 05/M05 A3038 RMK AO2 T00491046
KUNV 230715Z AUTO 00000KT 10SM CLR 05/M05 A3037 RMK AO2 T00541051
KUNV 230655Z AUTO 00000KT 10SM CLR 06/M05 A3037 RMK AO2 T00591050
KUNV 230635Z AUTO 03005KT 10SM CLR 07/M05 A3037 RMK AO2 T00731050
KUNV 230615Z AUTO 02006KT 10SM CLR 07/M05 A3037 RMK AO2 T00681046
KUNV 230555Z AUTO 00000KT 10SM CLR 07/M04 A3037 RMK AO2 T00661045 10150 20063
KUNV 230535Z AUTO 00000KT 10SM CLR 08/M05 A3037 RMK AO2 T00761046
KUNV 230515Z AUTO 04003KT 10SM CLR 08/M05 A3037 RMK AO2 T00821051
KUNV 230455Z AUTO 04004KT 10SM CLR 09/M04 A3037 RMK AO2 T00881045
KUNV 230435Z AUTO 06004KT 10SM CLR 08/M04 A3037 RMK AO2 T00841042
KUNV 230415Z AUTO 02005KT 10SM CLR 10/M05 A3037 RMK AO2 T01001046
KUNV 230355Z AUTO 01003KT 10SM CLR 10/M05 A3037 RMK AO2 T01011046 401730005
KUNV 230335Z AUTO 02003KT 10SM CLR 11/M05 A3036 RMK AO2 T01101050
KUNV 230315Z AUTO 00000KT 10SM CLR 11/M05 A3036 RMK AO2 T01081049
KUNV 230255Z AUTO 35004KT 10SM CLR 11/M04 A3037 RMK AO2 T01081045
KUNV 230235Z AUTO 00000KT 10SM CLR 13/M06 A3036 RMK AO2 T01301058
KUNV 230215Z AUTO 00000KT 10SM CLR 13/M06 A3035 RMK AO2 T01311058
KUNV 230153Z 00000KT 10SM SKC 13/M06 A3035
KUNV 230053Z 00000KT 10SM SKC 14/M06 A3034
KUNV 222353Z 17003KT 10SM SKC 15/M05 A3032
KUNV 222253Z 00000KT 10SM SKC 16/M05 A3031
KUNV 222153Z 00000KT 10SM SKC 17/M05 A3031
KUNV 222053Z 00000KT 10SM SKC 17/M05 A3032
KUNV 221953Z 00000KT 10SM SKC 17/M05 A3032
KUNV 221853Z 12004KT 10SM SKC 17/M04 A3035
KUNV 221753Z 23006KT 10SM SKC 16/M04 A3036
KUNV 221653Z 00000KT 10SM SKC 14/M04 A3038
KUNV 221553Z 00000KT 10SM SKC 14/M04 A3040
KUNV 221453Z 00000KT 10SM SKC 12/M04 A3041
KUNV 221353Z 00000KT 10SM SKC 10/M04 A3042
KUNV 221253Z 00000KT 10SM SKC 07/M01 A3043
KUNV 221153Z 00000KT 10SM SKC 04/M03 A3042
KUNV 221053Z 00000KT 10SM SKC 01/M05 A3040
KUNV 220953Z 00000KT 10SM SKC 03/M05 A3039
KUNV 220935Z AUTO 00000KT 10SM CLR 03/M05 A3039 RMK AO2 T00301050
KUNV 220915Z AUTO 00000KT 10SM CLR 03/M05 A3039 RMK AO2 T00341050
KUNV 220855Z AUTO 00000KT 10SM CLR 03/M05 A3038 RMK AO2 T00281051
KUNV 220835Z AUTO 04004KT 10SM CLR 04/M05 A3038 RMK AO2 T00401048
KUNV 220815Z AUTO 03004KT 10SM CLR 04/M05 A3039 RMK AO2 T00401048
KUNV 220755Z AUTO 00000KT 10SM CLR 04/M05 A3038 RMK AO2 T00411048
KUNV 220735Z AUTO 05004KT 10SM CLR 05/M05 A3038 RMK AO2 T00511053